Time,TemperatureF,DewpointF,PressureIn,WindDirection,WindDirectionDegrees,WindSpeedMPH,WindSpeedGustMPH,Humidity,HourlyPrecipIn,Conditions,Clouds,dailyrainin,SolarRadiationWatts/m^2,SoftwareType,DateUTC
2013-04-16 00:00:00,36.0,27.0,-100.00,West,270,7.0,-999.0,69,-99.99,,,-99.99,0.000000,,2013-04-16 05:00:00,
2013-04-16 00:42:00,36.0,27.0,-100.00,West,270,7.0,-999.0,69,-99.99,,,-99.99,0.000000,,2013-04-16 05:42:00,
2013-04-16 00:52:00,36.0,27.0,-100.00,West,270,7.0,-999.0,69,-99.99,,,-99.99,0.000000,,2013-04-16 05:52:00,
2013-04-16 01:00:00,35.0,27.0,-100.00,WSW,247,6.0,-999.0,73,-99.99,,,-99.99,0.000000,,2013-04-16 06:00:00,
2013-04-16 01:42:00,35.0,27.0,-100.00,WSW,247,6.0,-999.0,73,-99.99,,,-99.99,0.000000,,2013-04-16 06:42:00,
2013-04-16 01:52:00,35.0,27.0,-100.00,WSW,247,6.0,-999.0,73,-99.99,,,-99.99,0.000000,,2013-04-16 06:52:00,
2013-04-16 02:00:00,34.0,27.0,-100.00,West,270,7.0,-999.0,74,-99.99,,,-99.99,0.000000,,2013-04-16 07:00:00,
2013-04-16 02:42:00,34.0,27.0,-100.00,West,270,7.0,-999.0,74,-99.99,,,-99.99,0.000000,,2013-04-16 07:42:00,
2013-04-16 02:53:00,34.0,27.0,-100.00,West,270,7.0,-999.0,74,-99.99,,,-99.99,0.000000,,2013-04-16 07:53:00,
2013-04-16 04:00:00,33.0,26.0,-100.00,West,270,7.0,-999.0,74,-99.99,,,-99.99,0.000000,,2013-04-16 09:00:00,
2013-04-16 04:43:00,33.0,26.0,-100.00,West,270,7.0,-999.0,74,-99.99,,,-99.99,0.000000,,2013-04-16 09:43:00,
2013-04-16 04:53:00,33.0,26.0,-100.00,West,270,7.0,-999.0,74,-99.99,,,-99.99,0.000000,,2013-04-16 09:53:00,
2013-04-16 05:00:00,34.0,26.0,-100.00,West,270,7.0,-999.0,74,-99.99,,,-99.99,0.000000,,2013-04-16 10:00:00,
2013-04-16 05:43:00,34.0,26.0,-100.00,West,270,7.0,-999.0,74,-99.99,,,-99.99,0.000000,,2013-04-16 10:43:00,
2013-04-16 05:53:00,34.0,26.0,-100.00,West,270,7.0,-999.0,74,-99.99,,,-99.99,0.000000,,2013-04-16 10:53:00,
2013-04-16 06:00:00,34.0,27.0,-100.00,WSW,247,8.0,-999.0,74,-99.99,,,-99.99,0.000000,,2013-04-16 11:00:00,
2013-04-16 06:42:00,34.0,27.0,-100.00,WSW,247,8.0,-999.0,74,-99.99,,,-99.99,0.000000,,2013-04-16 11:42:00,
2013-04-16 06:53:00,34.0,27.0,-100.00,WSW,247,8.0,-999.0,74,-99.99,,,-99.99,0.000000,,2013-04-16 11:53:00,
2013-04-16 07:00:00,34.0,27.0,-100.00,West,270,8.0,-999.0,74,-99.99,,,-99.99,51.040001,,2013-04-16 12:00:00,
2013-04-16 07:42:00,34.0,27.0,-100.00,West,270,8.0,-999.0,74,-99.99,,,-99.99,51.040001,,2013-04-16 12:42:00,
2013-04-16 07:52:00,34.0,27.0,-100.00,West,270,8.0,-999.0,74,-99.99,,,-99.99,51.040001,,2013-04-16 12:52:00,
2013-04-16 08:00:00,36.0,28.0,-100.00,West,270,10.0,-999.0,71,-99.99,,,-99.99,225.039993,,2013-04-16 13:00:00,
2013-04-16 08:42:00,36.0,28.0,-100.00,West,270,10.0,-999.0,71,-99.99,,,-99.99,225.039993,,2013-04-16 13:42:00,
2013-04-16 08:52:00,36.0,28.0,-100.00,West,270,10.0,-999.0,71,-99.99,,,-99.99,225.039993,,2013-04-16 13:52:00,
2013-04-16 09:00:00,38.0,28.0,-100.00,West,270,13.0,-999.0,67,-99.99,,,-99.99,407.160004,,2013-04-16 14:00:00,
2013-04-16 09:42:00,38.0,28.0,-100.00,West,270,13.0,-999.0,67,-99.99,,,-99.99,407.160004,,2013-04-16 14:42:00,
2013-04-16 09:52:00,38.0,28.0,-100.00,West,270,13.0,-999.0,67,-99.99,,,-99.99,407.160004,,2013-04-16 14:52:00,
2013-04-16 10:00:00,40.0,29.0,-100.00,WNW,292,13.0,-999.0,63,-99.99,,,-99.99,578.840027,,2013-04-16 15:00:00,
2013-04-16 10:43:00,40.0,29.0,-100.00,WNW,292,13.0,-999.0,63,-99.99,,,-99.99,578.840027,,2013-04-16 15:43:00,
2013-04-16 10:53:00,40.0,29.0,-100.00,WNW,292,13.0,-999.0,63,-99.99,,,-99.99,578.840027,,2013-04-16 15:53:00,
2013-04-16 11:00:00,42.0,30.0,-100.00,WNW,292,13.0,-999.0,61,-99.99,,,-99.99,713.400024,,2013-04-16 16:00:00,
2013-04-16 11:42:00,42.0,30.0,-100.00,WNW,292,13.0,-999.0,61,-99.99,,,-99.99,713.400024,,2013-04-16 16:42:00,
2013-04-16 11:53:00,42.0,30.0,-100.00,WNW,292,13.0,-999.0,61,-99.99,,,-99.99,713.400024,,2013-04-16 16:53:00,
2013-04-16 12:00:00,44.0,29.0,-100.00,West,270,13.0,-999.0,57,-99.99,,,-99.99,803.880005,,2013-04-16 17:00:00,
2013-04-16 12:43:00,44.0,29.0,-100.00,West,270,13.0,-999.0,57,-99.99,,,-99.99,803.880005,,2013-04-16 17:43:00,
2013-04-16 12:53:00,44.0,29.0,-100.00,West,270,13.0,-999.0,57,-99.99,,,-99.99,803.880005,,2013-04-16 17:53:00,
2013-04-16 13:00:00,46.0,29.0,-100.00,West,270,10.0,-999.0,52,-99.99,,,-99.99,843.320007,,2013-04-16 18:00:00,
2013-04-16 13:43:00,46.0,29.0,-100.00,West,270,10.0,-999.0,52,-99.99,,,-99.99,843.320007,,2013-04-16 18:43:00,
2013-04-16 13:52:00,46.0,29.0,-100.00,West,270,10.0,-999.0,52,-99.99,,,-99.99,843.320007,,2013-04-16 18:52:00,
2013-04-16 14:00:00,46.0,29.0,-100.00,WNW,292,11.0,-999.0,51,-99.99,,,-99.99,762.119995,,2013-04-16 19:00:00,
2013-04-16 14:43:00,46.0,29.0,-100.00,WNW,292,11.0,-999.0,51,-99.99,,,-99.99,762.119995,,2013-04-16 19:43:00,
2013-04-16 14:52:00,46.0,29.0,-100.00,WNW,292,11.0,-999.0,51,-99.99,,,-99.99,762.119995,,2013-04-16 19:52:00,
2013-04-16 15:00:00,47.0,29.0,-100.00,West,270,9.0,-999.0,48,-99.99,,,-99.99,655.400024,,2013-04-16 20:00:00,
2013-04-16 15:42:00,47.0,29.0,-100.00,West,270,9.0,-999.0,48,-99.99,,,-99.99,655.400024,,2013-04-16 20:42:00,
2013-04-16 15:52:00,47.0,29.0,-100.00,West,270,9.0,-999.0,48,-99.99,,,-99.99,655.400024,,2013-04-16 20:52:00,
2013-04-16 16:00:00,48.0,27.0,-100.00,WNW,292,8.0,-999.0,43,-99.99,,,-99.99,680.919983,,2013-04-16 21:00:00,
2013-04-16 16:43:00,48.0,27.0,-100.00,WNW,292,8.0,-999.0,43,-99.99,,,-99.99,680.919983,,2013-04-16 21:43:00,
2013-04-16 16:53:00,48.0,27.0,-100.00,WNW,292,8.0,-999.0,43,-99.99,,,-99.99,680.919983,,2013-04-16 21:53:00,
2013-04-16 17:00:00,48.0,27.0,-100.00,NNW,337,8.0,-999.0,43,-99.99,,,-99.99,501.119995,,2013-04-16 22:00:00,
2013-04-16 17:43:00,48.0,27.0,-100.00,NNW,337,8.0,-999.0,43,-99.99,,,-99.99,501.119995,,2013-04-16 22:43:00,
2013-04-16 17:52:00,48.0,27.0,-100.00,NNW,337,8.0,-999.0,43,-99.99,,,-99.99,501.119995,,2013-04-16 22:52:00,
2013-04-16 18:00:00,47.0,27.0,-100.00,North,0,6.0,-999.0,46,-99.99,,,-99.99,234.320007,,2013-04-16 23:00:00,
2013-04-16 18:43:00,47.0,27.0,-100.00,North,0,6.0,-999.0,46,-99.99,,,-99.99,234.320007,,2013-04-16 23:43:00,
2013-04-16 18:52:00,47.0,27.0,-100.00,North,0,6.0,-999.0,46,-99.99,,,-99.99,234.320007,,2013-04-16 23:52:00,
2013-04-16 19:00:00,44.0,29.0,-100.00,NNW,337,2.0,-999.0,55,-99.99,,,-99.99,77.720001,,2013-04-17 00:00:00,
2013-04-16 19:42:00,44.0,29.0,-100.00,NNW,337,2.0,-999.0,55,-99.99,,,-99.99,77.720001,,2013-04-17 00:42:00,
2013-04-16 19:52:00,44.0,29.0,-100.00,NNW,337,2.0,-999.0,55,-99.99,,,-99.99,77.720001,,2013-04-17 00:52:00,
2013-04-16 20:00:00,43.0,29.0,-100.00,North,0,1.0,-999.0,58,-99.99,,,-99.99,10.440000,,2013-04-17 01:00:00,
2013-04-16 20:42:00,43.0,29.0,-100.00,North,0,1.0,-999.0,58,-99.99,,,-99.99,10.440000,,2013-04-17 01:42:00,
2013-04-16 20:52:00,43.0,29.0,-100.00,North,0,1.0,-999.0,58,-99.99,,,-99.99,10.440000,,2013-04-17 01:52:00,
2013-04-16 21:00:00,40.0,29.0,-100.00,NE,45,5.0,-999.0,64,-99.99,,,-99.99,0.000000,,2013-04-17 02:00:00,
2013-04-16 21:42:00,40.0,29.0,-100.00,NE,45,5.0,-999.0,64,-99.99,,,-99.99,0.000000,,2013-04-17 02:42:00,
2013-04-16 21:52:00,40.0,29.0,-100.00,NE,45,5.0,-999.0,64,-99.99,,,-99.99,0.000000,,2013-04-17 02:52:00,
2013-04-16 22:00:00,37.0,31.0,-100.00,ENE,67,4.0,-999.0,78,-99.99,,,-99.99,0.000000,,2013-04-17 03:00:00,
2013-04-16 22:42:00,37.0,31.0,-100.00,ENE,67,4.0,-999.0,78,-99.99,,,-99.99,0.000000,,2013-04-17 03:42:00,
2013-04-16 22:53:00,37.0,31.0,-100.00,ENE,67,4.0,-999.0,78,-99.99,,,-99.99,0.000000,,2013-04-17 03:53:00,
2013-04-16 23:00:00,36.0,28.0,-100.00,NNE,22,4.0,-999.0,74,-99.99,,,-99.99,0.000000,,2013-04-17 04:00:00,
2013-04-16 23:42:00,36.0,28.0,-100.00,NNE,22,4.0,-999.0,74,-99.99,,,-99.99,0.000000,,2013-04-17 04:42:00,
2013-04-16 23:52:00,36.0,28.0,-100.00,NNE,22,4.0,-999.0,74,-99.99,,,-99.99,0.000000,,2013-04-17 04:52:00,